Time;durP1;ratioP1;P1;durP2;ratioP2;P2;SDS_P1;SDS_P2;PMS_P1;PMS_P2;Temp;Humidity;BMP_temperature;BMP_pressure;BME280_temperature;BME280_humidity;BME280_pressure;Samples;Min_cycle;Max_cycle;Signal;HPM_P1;HPM_P2
2022/08/15 00:01:48;;;;;;;24.12;9.83;;;;;;;16.36;100.00;97317.66;1693309;84;20916;-84
2022/08/15 00:04:14;;;;;;;11.48;8.75;;;;;;;16.34;100.00;97306.27;1693169;84;21054;-86
2022/08/15 00:06:42;;;;;;;13.00;10.15;;;;;;;16.33;100.00;97312.31;1729044;82;20974;-84
2022/08/15 00:09:17;;;;;;;12.07;9.23;;;;;;;16.36;100.00;97301.27;1728987;82;21455;-86
2022/08/15 00:11:46;;;;;;;14.65;10.13;;;;;;;16.31;100.00;97312.38;1724215;82;21038;-83
2022/08/15 00:14:17;;;;;;;20.77;10.15;;;;;;;16.27;100.00;97312.27;1703509;82;21029;-87
2022/08/15 00:16:43;;;;;;;13.35;9.53;;;;;;;16.25;100.00;97318.64;1691480;83;21482;-83
2022/08/15 00:19:15;;;;;;;11.93;9.43;;;;;;;16.19;100.00;97324.06;1711742;82;21043;-83
2022/08/15 00:21:46;;;;;;;10.20;8.80;;;;;;;16.18;100.00;97320.30;1663748;85;22404;-83
2022/08/15 00:24:15;;;;;;;14.28;8.90;;;;;;;16.18;100.00;97321.09;1663834;85;21040;-86
2022/08/15 00:26:48;;;;;;;15.83;9.73;;;;;;;16.17;100.00;97318.14;1718729;83;21076;-84
2022/08/15 00:29:13;;;;;;;14.80;9.25;;;;;;;16.16;100.00;97314.38;1681942;83;21013;-86
2022/08/15 00:31:39;;;;;;;14.65;8.80;;;;;;;16.12;100.00;97314.79;1722363;82;20890;-83
2022/08/15 00:34:05;;;;;;;12.93;8.68;;;;;;;16.08;100.00;97314.09;1723575;82;21122;-87
2022/08/15 00:36:31;;;;;;;14.83;9.98;;;;;;;16.06;100.00;97311.44;1724311;83;20946;-86
2022/08/15 00:38:59;;;;;;;14.23;9.95;;;;;;;16.02;100.00;97308.59;1727518;83;20892;-86
2022/08/15 00:41:39;;;;;;;15.98;9.88;;;;;;;16.00;100.00;97307.33;1693870;84;21451;-87
2022/08/15 00:44:22;;;;;;;11.95;9.58;;;;;;;15.97;100.00;97318.33;1729288;83;21399;-86
2022/08/15 00:46:52;;;;;;;12.60;8.58;;;;;;;15.94;100.00;97307.28;1719068;82;21216;-83
2022/08/15 00:49:19;;;;;;;11.18;7.25;;;;;;;15.88;100.00;97306.66;1722821;82;21419;-84
2022/08/15 00:51:59;;;;;;;9.33;7.28;;;;;;;15.85;100.00;97307.33;1722211;83;21026;-86
2022/08/15 00:54:39;;;;;;;9.10;7.03;;;;;;;15.82;100.00;97301.17;1722058;82;21002;-87
2022/08/15 00:57:09;;;;;;;10.50;7.62;;;;;;;15.79;100.00;97293.05;1728485;82;21066;-83
2022/08/15 00:59:44;;;;;;;8.95;6.62;;;;;;;15.77;100.00;97296.69;1722482;82;21217;-83
2022/08/15 01:02:16;;;;;;;9.35;7.55;;;;;;;15.75;100.00;97294.06;1725633;83;20960;-83
2022/08/15 01:04:42;;;;;;;11.70;8.70;;;;;;;15.72;100.00;97296.90;1728806;82;21030;-83
2022/08/15 01:07:09;;;;;;;13.88;9.08;;;;;;;15.69;100.00;97290.72;1701359;83;21058;-83
2022/08/15 01:09:36;;;;;;;12.68;8.93;;;;;;;15.67;100.00;97290.25;1711070;83;21019;-83
2022/08/15 01:12:15;;;;;;;9.33;7.37;;;;;;;15.66;100.00;97287.86;1717709;83;21247;-84
2022/08/15 01:14:46;;;;;;;12.60;9.53;;;;;;;15.64;100.00;97291.48;1712126;83;21243;-86
2022/08/15 01:17:12;;;;;;;15.68;10.38;;;;;;;15.61;100.00;97297.02;1695892;83;21018;-84
2022/08/15 01:19:46;;;;;;;11.48;8.58;;;;;;;15.60;100.00;97301.42;1747612;81;21470;-86
2022/08/15 01:22:48;;;;;;;13.80;9.65;;;;;;;15.56;100.00;97300.50;1728626;82;20987;-84
2022/08/15 01:25:24;;;;;;;12.05;8.90;;;;;;;15.55;100.00;97295.56;1726380;81;21179;-84
2022/08/15 01:28:03;;;;;;;11.60;8.88;;;;;;;15.57;100.00;97296.06;1668362;83;21065;-86
2022/08/15 01:30:40;;;;;;;10.63;8.55;;;;;;;15.58;100.00;97293.56;1721757;83;21027;-86
2022/08/15 01:33:07;;;;;;;12.60;9.93;;;;;;;15.59;100.00;97293.80;1718566;83;21511;-87
2022/08/15 01:35:34;;;;;;;14.45;10.28;;;;;;;15.63;100.00;97293.95;1701936;83;21561;-86
2022/08/15 01:38:02;;;;;;;19.02;10.50;;;;;;;15.63;100.00;97287.13;1698737;84;21135;-83
2022/08/15 01:40:57;;;;;;;13.98;10.00;;;;;;;15.66;100.00;97293.31;1714702;83;21466;-83
2022/08/15 01:43:26;;;;;;;16.52;9.90;;;;;;;15.71;100.00;97295.84;1679040;84;21418;-86
2022/08/15 01:45:53;;;;;;;14.83;10.20;;;;;;;15.75;100.00;97296.80;1650140;85;21069;-86
2022/08/15 01:48:27;;;;;;;17.52;9.65;;;;;;;15.77;100.00;97296.69;1722067;83;21006;-84
2022/08/15 01:50:58;;;;;;;13.72;7.78;;;;;;;15.77;100.00;97294.53;1723471;82;21855;-84
2022/08/15 01:53:38;;;;;;;16.35;9.65;;;;;;;15.78;100.00;97290.09;1722455;82;21037;-86
2022/08/15 01:56:14;;;;;;;16.52;9.45;;;;;;;15.73;100.00;97283.48;1723227;83;20964;-84
2022/08/15 01:58:42;;;;;;;13.53;9.88;;;;;;;15.72;100.00;97287.87;1723984;82;21003;-85
2022/08/15 02:01:11;;;;;;;14.55;10.38;;;;;;;15.71;100.00;97282.19;1724094;82;20987;-84
2022/08/15 02:03:38;;;;;;;12.95;9.65;;;;;;;15.71;100.00;97281.62;1726095;83;21895;-86
2022/08/15 02:06:14;;;;;;;14.20;10.43;;;;;;;15.72;100.00;97274.22;1728274;82;21062;-83
2022/08/15 02:08:41;;;;;;;16.77;9.13;;;;;;;15.74;100.00;97274.72;1692042;84;20995;-86
2022/08/15 02:11:11;;;;;;;16.65;9.90;;;;;;;15.75;100.00;97272.22;1724566;82;21021;-86
2022/08/15 02:13:37;;;;;;;13.28;8.98;;;;;;;15.74;100.00;97269.25;1723625;82;21049;-84
2022/08/15 02:16:04;;;;;;;12.60;9.70;;;;;;;15.75;100.00;97267.55;1714370;82;21452;-83
2022/08/15 02:18:30;;;;;;;12.58;10.03;;;;;;;15.76;100.00;97270.52;1684724;83;21101;-84
2022/08/15 02:20:57;;;;;;;14.80;11.00;;;;;;;15.79;100.00;97266.31;1719304;83;21221;-84
2022/08/15 02:23:23;;;;;;;14.75;9.53;;;;;;;15.80;100.00;97262.45;1728695;82;21014;-86
2022/08/15 02:25:51;;;;;;;19.70;10.50;;;;;;;15.80;100.00;97262.45;1702676;83;21093;-84
2022/08/15 02:28:17;;;;;;;15.45;10.68;;;;;;;15.77;100.00;97260.38;1722072;82;21053;-83
2022/08/15 02:30:43;;;;;;;14.85;11.88;;;;;;;15.74;100.00;97254.23;1721771;82;20972;-86
2022/08/15 02:33:09;;;;;;;12.93;10.38;;;;;;;15.75;100.00;97254.46;1722679;82;21032;-87
2022/08/15 02:35:35;;;;;;;17.20;10.40;;;;;;;15.74;100.00;97254.23;1721992;83;20978;-83
2022/08/15 02:38:05;;;;;;;14.65;11.90;;;;;;;15.71;100.00;97249.41;1679003;85;21061;-84
2022/08/15 02:40:29;;;;;;;15.88;10.08;;;;;;;15.71;100.00;97247.48;1688581;84;21257;-84
2022/08/15 02:42:55;;;;;;;14.18;9.93;;;;;;;15.69;100.00;97246.22;1688512;83;21597;-84
2022/08/15 02:45:21;;;;;;;15.55;10.23;;;;;;;15.66;100.00;97245.53;1703345;83;21054;-83
2022/08/15 02:47:47;;;;;;;12.75;10.30;;;;;;;15.65;100.00;97242.56;1693535;84;20948;-86
2022/08/15 02:50:14;;;;;;;12.07;9.80;;;;;;;15.63;100.00;97251.63;1693175;84;20995;-83
2022/08/15 02:52:42;;;;;;;15.45;10.05;;;;;;;15.63;100.00;97246.17;1728615;82;21877;-86
2022/08/15 02:55:09;;;;;;;18.37;9.78;;;;;;;15.62;100.00;97246.73;1692986;84;21031;-87
2022/08/15 02:57:35;;;;;;;12.82;9.53;;;;;;;15.61;100.00;97248.44;1727644;81;20967;-86
2022/08/15 03:00:03;;;;;;;14.65;9.75;;;;;;;15.63;100.00;97244.23;1722767;82;20938;-85
2022/08/15 03:02:29;;;;;;;12.55;9.18;;;;;;;15.66;100.00;97241.43;1744460;81;21052;-83
2022/08/15 03:04:55;;;;;;;11.12;9.43;;;;;;;15.65;100.00;97248.03;1693192;84;21235;-83
2022/08/15 03:07:21;;;;;;;12.98;9.80;;;;;;;15.68;100.00;97244.63;1728579;82;20963;-83
2022/08/15 03:09:47;;;;;;;15.32;9.30;;;;;;;15.71;100.00;97250.78;1687595;84;20923;-83
2022/08/15 03:12:14;;;;;;;13.68;10.18;;;;;;;15.72;100.00;97246.38;1691443;84;21598;-86
2022/08/15 03:14:40;;;;;;;14.45;10.15;;;;;;;15.75;100.00;97246.27;1700381;83;21108;-86
2022/08/15 03:17:08;;;;;;;16.70;11.15;;;;;;;15.77;100.00;97246.73;1720242;82;21275;-84
2022/08/15 03:19:36;;;;;;;11.90;8.77;;;;;;;15.78;100.00;97251.85;1746738;81;21451;-86
2022/08/15 03:22:03;;;;;;;13.80;9.85;;;;;;;15.84;100.00;97248.94;1729009;82;21062;-84
2022/08/15 03:24:30;;;;;;;13.78;9.18;;;;;;;15.86;100.00;97247.47;1686613;83;20999;-85
2022/08/15 03:26:56;;;;;;;16.62;10.55;;;;;;;15.87;100.00;97253.16;1722191;82;21034;-84
2022/08/15 03:29:23;;;;;;;14.87;11.00;;;;;;;15.89;100.00;97248.16;1721916;82;21727;-83
2022/08/15 03:31:51;;;;;;;14.78;11.05;;;;;;;15.88;100.00;97245.77;1721680;82;21042;-85
2022/08/15 03:34:19;;;;;;;12.85;9.55;;;;;;;15.84;100.00;97244.27;1721900;82;21049;-84
2022/08/15 03:36:46;;;;;;;13.78;10.90;;;;;;;15.82;100.00;97249.84;1722392;82;21058;-86
2022/08/15 03:39:14;;;;;;;17.48;11.33;;;;;;;15.78;100.00;97245.59;1722301;82;21070;-86
2022/08/15 03:41:41;;;;;;;14.70;11.68;;;;;;;15.74;100.00;97246.84;1722312;82;21308;-86
2022/08/15 03:44:07;;;;;;;12.82;10.25;;;;;;;15.71;100.00;97242.59;1721767;82;21461;-84
2022/08/15 03:46:33;;;;;;;14.85;9.98;;;;;;;15.69;100.00;97236.66;1695465;82;20900;-83
2022/08/15 03:48:59;;;;;;;14.90;10.50;;;;;;;15.66;100.00;97240.06;1728686;83;20951;-84
2022/08/15 03:51:25;;;;;;;14.18;9.95;;;;;;;15.62;100.00;97237.18;1693103;84;20986;-84
2022/08/15 03:53:58;;;;;;;14.43;10.75;;;;;;;15.60;100.00;97240.78;1693067;84;22003;-86
2022/08/15 03:56:28;;;;;;;15.38;11.00;;;;;;;15.57;100.00;97236.56;1693320;84;21030;-84
2022/08/15 03:58:55;;;;;;;15.65;9.60;;;;;;;15.53;100.00;97239.93;1692993;84;21523;-86
2022/08/15 04:01:24;;;;;;;15.28;10.32;;;;;;;15.58;100.00;97243.05;1693038;83;21038;-84
2022/08/15 04:03:51;;;;;;;17.85;11.70;;;;;;;15.58;100.00;97240.32;1681656;84;21093;-86
2022/08/15 04:06:20;;;;;;;13.55;10.63;;;;;;;15.57;100.00;97242.02;1671596;85;21087;-84
2022/08/15 04:08:47;;;;;;;14.78;11.03;;;;;;;15.58;100.00;97237.59;1676986;84;21000;-86
2022/08/15 04:11:14;;;;;;;15.88;10.75;;;;;;;15.60;100.00;97242.72;1676757;84;21024;-84
2022/08/15 04:13:40;;;;;;;20.32;11.65;;;;;;;15.58;100.00;97244.98;1683606;84;20985;-86
2022/08/15 04:16:07;;;;;;;15.45;11.03;;;;;;;15.62;100.00;97240.48;1723127;83;21466;-83
2022/08/15 04:18:33;;;;;;;18.02;10.72;;;;;;;15.68;100.00;97240.53;1725169;81;22039;-85
2022/08/15 04:21:02;;;;;;;14.40;10.38;;;;;;;15.72;100.00;97247.74;1734248;81;21026;-84
2022/08/15 04:23:28;;;;;;;;;;;;;;;15.72;100.00;97246.91;1709167;82;20983;-84
2022/08/15 04:25:54;;;;;;;13.28;9.60;;;;;;;15.73;100.00;97257.53;1728430;82;20178;-84
2022/08/15 04:28:21;;;;;;;12.35;8.85;;;;;;;15.70;100.00;97251.34;1728808;83;21066;-84
2022/08/15 04:30:48;;;;;;;15.00;10.30;;;;;;;15.67;100.00;97258.05;1693105;84;21038;-86
2022/08/15 04:33:22;;;;;;;19.25;10.40;;;;;;;15.63;100.00;97247.53;1705724;83;20975;-86
2022/08/15 04:36:09;;;;;;;13.13;10.05;;;;;;;15.62;100.00;97251.40;1724126;82;21030;-84
2022/08/15 04:38:42;;;;;;;16.45;10.10;;;;;;;15.57;100.00;97238.72;1692910;84;21045;-86
2022/08/15 04:41:08;;;;;;;13.88;9.28;;;;;;;15.54;100.00;97246.19;1684723;83;21002;-83
2022/08/15 04:43:35;;;;;;;13.03;9.73;;;;;;;15.54;100.00;97243.46;1726047;82;21944;-86
2022/08/15 04:46:01;;;;;;;12.85;9.03;;;;;;;15.57;100.00;97233.83;1706186;83;21014;-86
2022/08/15 04:48:28;;;;;;;13.22;9.50;;;;;;;15.63;100.00;97233.87;1722110;82;20994;-86
2022/08/15 04:50:55;;;;;;;13.80;9.30;;;;;;;15.67;100.00;97230.73;1727421;82;20999;-86
2022/08/15 04:53:24;;;;;;;12.35;9.98;;;;;;;15.72;100.00;97233.25;1693392;83;21448;-85
2022/08/15 04:55:52;;;;;;;17.20;12.00;;;;;;;15.78;100.00;97231.94;1664279;85;21530;-84
2022/08/15 04:58:18;;;;;;;16.65;13.00;;;;;;;15.85;100.00;97230.05;1713068;83;21003;-84
2022/08/15 05:00:52;;;;;;;16.30;11.97;;;;;;;15.90;100.00;97240.22;1664957;83;20962;-86
2022/08/15 05:03:19;;;;;;;16.00;12.93;;;;;;;15.97;100.00;97239.66;1723902;82;21018;-83
2022/08/15 05:05:51;;;;;;;17.07;12.88;;;;;;;16.05;100.00;97234.13;1723817;82;20994;-85
2022/08/15 05:08:17;;;;;;;23.07;14.65;;;;;;;16.13;100.00;97234.40;1724004;82;21320;-86
2022/08/15 05:10:44;;;;;;;20.90;14.70;;;;;;;16.18;100.00;97237.73;1722295;82;20856;-84
2022/08/15 05:13:16;;;;;;;21.70;15.95;;;;;;;16.20;100.00;97238.20;1721389;82;20990;-84
2022/08/15 05:15:42;;;;;;;21.52;14.60;;;;;;;16.19;100.00;97239.91;1695110;83;21059;-86
2022/08/15 05:18:08;;;;;;;17.70;13.13;;;;;;;16.19;100.00;97236.60;1722884;82;21051;-83
2022/08/15 05:20:34;;;;;;;11.73;9.33;;;;;;;16.27;100.00;97228.09;1722020;82;21148;-83
2022/08/15 05:23:06;;;;;;;17.80;9.68;;;;;;;16.41;100.00;97231.34;1703335;83;21009;-84
2022/08/15 05:25:34;;;;;;;10.45;8.95;;;;;;;16.44;100.00;97222.46;1707425;82;21082;-86
2022/08/15 05:28:00;;;;;;;14.90;9.90;;;;;;;16.52;100.00;97223.52;1728703;82;21421;-86
2022/08/15 05:30:26;;;;;;;21.10;15.20;;;;;;;16.59;100.00;97223.77;1685564;83;21411;-84
2022/08/15 05:33:05;;;;;;;12.28;10.45;;;;;;;16.73;100.00;97226.21;1693302;84;21821;-84
2022/08/15 05:35:31;;;;;;;;;;;;;;;16.82;100.00;97225.55;1666726;85;21002;-86
2022/08/15 05:38:00;;;;;;;12.88;9.68;;;;;;;16.93;100.00;97229.45;1664252;84;20188;-86
2022/08/15 05:40:28;;;;;;;11.97;8.70;;;;;;;17.04;100.00;97221.59;1671372;85;20981;-84
2022/08/15 05:42:57;;;;;;;;;;;;;;;17.21;100.00;97224.12;1676353;85;21042;-83
2022/08/15 05:45:30;;;;;;;9.70;7.83;;;;;;;17.39;100.00;97217.84;1673691;85;21052;-86
2022/08/15 05:48:13;;;;;;;10.30;8.50;;;;;;;17.56;100.00;97224.44;1673602;85;38424;-86
2022/08/15 05:50:57;;;;;;;9.95;8.35;;;;;;;17.74;100.00;97226.39;1673633;85;21511;-83
2022/08/15 05:53:31;;;;;;;10.35;9.25;;;;;;;17.87;100.00;97220.33;1670083;85;21047;-86
2022/08/15 05:56:12;;;;;;;12.50;9.50;;;;;;;17.99;100.00;97228.50;1674636;84;21415;-84
2022/08/15 05:58:45;;;;;;;12.63;9.55;;;;;;;18.17;100.00;97222.95;1688072;83;21177;-83
2022/08/15 06:01:31;;;;;;;11.85;9.75;;;;;;;18.27;100.00;97218.34;1679128;84;21005;-85
2022/08/15 06:04:17;;;;;;;14.38;9.85;;;;;;;18.32;100.00;97217.31;1688609;82;21034;-84
2022/08/15 06:06:43;;;;;;;12.37;8.33;;;;;;;18.39;100.00;97216.14;1673272;84;21019;-83
2022/08/15 06:09:29;;;;;;;10.70;8.78;;;;;;;18.46;100.00;97225.15;1678739;84;20922;-84
2022/08/15 06:11:55;;;;;;;9.80;8.70;;;;;;;18.53;100.00;97227.48;1656586;85;21490;-84
2022/08/15 06:14:30;;;;;;;10.60;9.00;;;;;;;18.63;100.00;97233.06;1644349;85;20941;-86
2022/08/15 06:17:00;;;;;;;10.65;9.53;;;;;;;18.73;100.00;97232.58;1676377;85;21061;-86
2022/08/15 06:19:32;;;;;;;13.62;8.65;;;;;;;18.85;100.00;97229.75;1671232;85;21053;-86
2022/08/15 06:22:38;;;;;;;14.23;9.18;;;;;;;18.98;100.00;97231.06;1674032;85;20980;-83
2022/08/15 06:25:18;;;;;;;11.10;9.48;;;;;;;19.12;100.00;97225.91;1667691;85;21260;-84
2022/08/15 06:27:58;;;;;;;10.68;8.65;;;;;;;19.21;100.00;97229.84;1652539;85;21074;-83
2022/08/15 06:30:38;;;;;;;10.30;8.45;;;;;;;19.33;100.00;97233.89;1671998;85;21042;-84
2022/08/15 06:33:36;;;;;;;14.60;9.45;;;;;;;19.52;100.00;97234.53;1637639;86;21081;-84
2022/08/15 06:36:08;;;;;;;12.10;8.60;;;;;;;19.63;100.00;97228.72;1659551;85;21514;-85
2022/08/15 06:39:01;;;;;;;11.25;9.68;;;;;;;19.90;100.00;97231.09;1672960;85;21235;-87
2022/08/15 06:41:39;;;;;;;9.95;8.48;;;;;;;20.09;100.00;97231.72;1728655;82;20995;-83
2022/08/15 06:44:05;;;;;;;12.58;8.68;;;;;;;20.37;100.00;97225.41;1693068;84;21071;-83
2022/08/15 06:46:33;;;;;;;10.98;8.00;;;;;;;20.63;100.00;97228.90;1728317;82;21003;-87
2022/08/15 06:49:03;;;;;;;13.35;8.38;;;;;;;20.91;100.00;97225.86;1693361;84;21034;-87
2022/08/15 06:51:32;;;;;;;12.00;8.38;;;;;;;21.22;100.00;97228.97;1724078;82;21889;-87
2022/08/15 06:53:58;;;;;;;10.45;7.53;;;;;;;21.75;99.80;97227.66;1700674;82;21011;-84
2022/08/15 06:56:46;;;;;;;11.63;8.25;;;;;;;22.04;100.00;97229.42;1717525;81;20988;-84
2022/08/15 06:59:21;;;;;;;9.78;7.10;;;;;;;22.09;100.00;97224.41;1721808;83;21027;-84
2022/08/15 07:02:27;;;;;;;9.13;7.80;;;;;;;22.28;96.21;97225.42;1739582;82;21022;-87
2022/08/15 07:05:18;;;;;;;13.25;8.45;;;;;;;22.06;94.51;97224.34;1732109;82;21800;-84
2022/08/15 07:08:01;;;;;;;12.25;8.45;;;;;;;21.98;95.10;97227.59;1653868;85;21492;-87
2022/08/15 07:10:43;;;;;;;8.75;7.67;;;;;;;21.98;93.58;97224.83;1669362;85;21034;-86
2022/08/15 07:13:15;;;;;;;10.85;8.33;;;;;;;22.30;93.57;97228.02;1679431;84;21025;-87
2022/08/15 07:15:57;;;;;;;8.78;7.40;;;;;;;22.97;90.34;97234.91;1665441;84;21085;-84
2022/08/15 07:18:40;;;;;;;8.73;7.67;;;;;;;23.24;88.00;97223.70;1656861;85;21214;-84
2022/08/15 07:21:12;;;;;;;11.00;7.75;;;;;;;23.64;87.11;97222.27;1638384;86;21020;-87
2022/08/15 07:24:18;;;;;;;9.50;7.20;;;;;;;24.47;89.63;97229.08;1661989;85;21459;-87
2022/08/15 07:27:12;;;;;;;9.05;7.78;;;;;;;25.11;87.58;97228.45;1663720;85;21031;-84
2022/08/15 07:29:43;;;;;;;9.13;7.30;;;;;;;25.49;84.41;97224.92;1673888;85;21038;-87
2022/08/15 07:32:17;;;;;;;11.33;7.67;;;;;;;25.80;77.27;97224.70;1674668;85;21802;-87
2022/08/15 07:35:07;;;;;;;10.05;6.95;;;;;;;26.45;82.39;97220.38;1672882;85;21419;-85
2022/08/15 07:37:35;;;;;;;9.55;7.55;;;;;;;27.14;78.61;97227.36;1673748;85;21431;-85
2022/08/15 07:40:21;;;;;;;10.80;8.45;;;;;;;27.31;73.36;97220.08;1673139;85;21132;-84
2022/08/15 07:42:48;;;;;;;10.75;9.10;;;;;;;27.31;73.36;97220.08;1678576;85;21040;-87
2022/08/15 07:45:22;;;;;;;8.30;7.35;;;;;;;27.77;72.04;97229.46;1675038;85;21267;-88
2022/08/15 07:48:02;;;;;;;8.43;7.42;;;;;;;28.33;72.23;97221.72;1672015;85;21041;-84
2022/08/15 07:50:41;;;;;;;8.88;7.35;;;;;;;29.00;71.40;97227.64;1726457;83;20998;-85
2022/08/15 07:53:21;;;;;;;9.05;6.95;;;;;;;29.56;69.89;97225.17;1693999;84;21046;-88
2022/08/15 07:56:13;;;;;;;8.35;6.33;;;;;;;29.78;62.85;97230.58;1723426;82;21024;-88
2022/08/15 07:58:41;;;;;;;9.13;6.85;;;;;;;29.99;64.03;97230.00;1697040;83;21187;-85
2022/08/15 08:01:27;;;;;;;7.40;6.70;;;;;;;29.88;55.83;97218.25;1693643;84;20921;-87
2022/08/15 08:04:08;;;;;;;8.68;7.00;;;;;;;30.27;58.73;97216.15;1728733;82;20999;-89
2022/08/15 08:07:00;;;;;;;8.00;6.62;;;;;;;30.63;58.73;97220.39;1724523;82;21495;-87
2022/08/15 08:09:54;;;;;;;7.20;6.33;;;;;;;31.09;56.73;97214.39;1677212;84;21035;-88
2022/08/15 08:12:30;;;;;;;18.05;7.58;;;;;;;30.90;55.24;97217.42;1697259;83;21090;-88
2022/08/15 08:15:18;;;;;;;8.33;7.33;;;;;;;30.83;57.56;97216.19;1703493;83;21257;-88
2022/08/15 08:18:02;;;;;;;12.82;10.00;;;;;;;31.20;58.24;97216.97;1670193;84;21003;-87
2022/08/15 08:20:47;;;;;;;7.95;7.25;;;;;;;31.70;56.51;97218.73;1719156;83;21007;-85
2022/08/15 08:23:21;;;;;;;8.30;6.83;;;;;;;31.93;52.95;97212.77;1684813;83;21051;-86
2022/08/15 08:25:59;;;;;;;7.45;6.75;;;;;;;32.67;54.94;97214.72;1682456;84;21157;-85
2022/08/15 08:28:55;;;;;;;9.10;7.28;;;;;;;33.09;55.33;97217.66;1727445;82;21051;-87
2022/08/15 08:31:30;;;;;;;8.48;7.15;;;;;;;33.65;52.96;97218.45;1693623;82;21037;-85
2022/08/15 08:34:10;;;;;;;8.20;7.08;;;;;;;34.07;49.40;97212.63;1710384;83;21002;-86
2022/08/15 08:37:05;;;;;;;8.75;7.53;;;;;;;34.74;46.77;97204.37;1723360;82;21006;-85
2022/08/15 08:39:36;;;;;;;9.40;7.53;;;;;;;34.07;46.37;97205.60;1728751;83;21565;-86
2022/08/15 08:42:18;;;;;;;10.82;7.15;;;;;;;34.26;41.44;97207.93;1693041;84;21439;-86
2022/08/15 08:45:01;;;;;;;8.50;7.17;;;;;;;35.13;46.30;97204.91;1692767;84;20983;-86
2022/08/15 08:47:39;;;;;;;9.55;7.67;;;;;;;35.11;44.80;97206.76;1722061;82;21464;-89
2022/08/15 08:50:29;;;;;;;10.05;7.60;;;;;;;35.76;43.80;97205.72;1708995;83;20999;-88
2022/08/15 08:53:32;;;;;;;11.78;7.15;;;;;;;36.04;41.86;97207.95;1728847;82;21955;-87
2022/08/15 08:56:19;;;;;;;11.45;7.33;;;;;;;35.51;41.75;97201.77;1686577;84;21034;-88
2022/08/15 08:58:48;;;;;;;;;;;;;;;36.20;42.31;97222.38;1695780;84;21055;-86
2022/08/15 09:01:21;;;;;;;8.45;7.35;;;;;;;36.32;39.75;97214.39;1728450;81;20220;-86
2022/08/15 09:03:52;;;;;;;7.72;6.97;;;;;;;36.72;37.84;97222.64;1727552;82;21011;-89
2022/08/15 09:06:25;;;;;;;7.45;6.65;;;;;;;37.00;39.36;97209.89;1686638;83;21036;-89
2022/08/15 09:08:56;;;;;;;9.35;6.85;;;;;;;36.57;37.97;97211.08;1707372;83;21438;-89
2022/08/15 09:11:35;;;;;;;8.55;7.17;;;;;;;37.01;37.47;97208.66;1730106;82;21064;-89
2022/08/15 09:14:12;;;;;;;9.08;7.60;;;;;;;37.52;36.57;97210.64;1721569;82;21012;-86
2022/08/15 09:16:38;;;;;;;10.05;7.22;;;;;;;37.76;36.46;97211.41;1698719;82;21018;-87
2022/08/15 09:19:18;;;;;;;8.63;7.83;;;;;;;38.04;36.61;97209.84;1723306;82;21473;-89
2022/08/15 09:21:44;;;;;;;9.00;7.53;;;;;;;38.21;35.98;97210.95;1716767;81;21035;-87
2022/08/15 09:24:10;;;;;;;8.65;7.75;;;;;;;38.31;35.95;97214.52;1707405;82;20994;-87
2022/08/15 09:26:44;;;;;;;7.15;6.50;;;;;;;38.83;35.38;97207.89;1700384;83;21443;-89
2022/08/15 09:29:21;;;;;;;7.37;6.67;;;;;;;39.17;34.76;97205.77;1733359;81;21498;-86
2022/08/15 09:32:26;;;;;;;8.53;7.25;;;;;;;38.55;32.24;97205.33;1717249;82;21874;-89
2022/08/15 09:35:39;;;;;;;7.30;6.45;;;;;;;38.77;34.00;97201.34;1728337;82;21314;-90
2022/08/15 09:38:37;;;;;;;9.50;6.25;;;;;;;39.41;33.43;97192.88;1692577;84;21416;-89
2022/08/15 09:41:12;;;;;;;9.08;7.45;;;;;;;39.72;33.47;97194.33;1728338;82;20974;-88
2022/08/15 09:44:00;;;;;;;8.53;7.45;;;;;;;39.68;33.71;97196.61;1726672;82;21015;-89
2022/08/15 09:46:38;;;;;;;7.80;6.42;;;;;;;39.89;33.41;97195.33;1717519;83;21142;-89
2022/08/15 09:49:21;;;;;;;8.95;6.75;;;;;;;40.16;32.91;97194.13;1693421;84;20995;-88
2022/08/15 09:52:24;;;;;;;7.62;6.92;;;;;;;40.27;32.67;97192.85;1728964;82;21011;-87
2022/08/15 09:54:56;;;;;;;10.85;7.08;;;;;;;41.00;32.08;97190.73;1693589;84;21491;-89
2022/08/15 09:57:34;;;;;;;7.20;6.50;;;;;;;41.30;31.51;97186.21;1700886;83;21007;-89
2022/08/15 10:00:05;;;;;;;6.70;6.10;;;;;;;41.47;31.26;97187.73;1710120;83;21332;-89
2022/08/15 10:02:32;;;;;;;8.85;7.12;;;;;;;40.88;31.34;97181.22;1727584;83;21011;-89
2022/08/15 10:05:08;;;;;;;8.98;7.37;;;;;;;38.01;33.13;97182.52;1674205;84;21542;-88
2022/08/15 10:07:48;;;;;;;7.57;6.87;;;;;;;36.43;36.23;97175.86;1693752;83;20975;-89
2022/08/15 10:10:25;;;;;;;9.00;6.72;;;;;;;34.89;38.51;97173.66;1691922;83;20960;-89
2022/08/15 10:13:28;;;;;;;8.60;7.40;;;;;;;35.30;38.62;97169.00;1723142;82;21335;-86
2022/08/15 10:15:55;;;;;;;7.40;6.70;;;;;;;36.99;36.52;97161.75;1720909;82;21053;-86
2022/08/15 10:18:26;;;;;;;9.93;7.10;;;;;;;36.99;35.14;97162.53;1689796;84;21494;-89
2022/08/15 10:21:18;;;;;;;8.90;7.92;;;;;;;37.30;34.29;97161.45;1693786;84;21053;-87
2022/08/15 10:23:47;;;;;;;11.40;7.80;;;;;;;35.40;37.83;97159.97;1693490;84;21279;-89
2022/08/15 10:26:29;;;;;;;8.78;7.25;;;;;;;34.22;40.01;97152.48;1728771;82;21133;-86
2022/08/15 10:29:18;;;;;;;9.23;7.37;;;;;;;34.59;39.65;97153.50;1688781;80;20994;-88
2022/08/15 10:31:57;;;;;;;8.88;7.97;;;;;;;33.51;41.30;97159.20;1692245;83;21032;-86
2022/08/15 10:35:00;;;;;;;8.95;8.05;;;;;;;32.50;43.26;97151.72;1721110;83;21074;-86
2022/08/15 10:37:51;;;;;;;9.10;8.20;;;;;;;31.81;44.52;97154.08;1705001;83;21334;-86
2022/08/15 10:40:38;;;;;;;9.55;8.55;;;;;;;31.15;45.90;97152.52;1721826;83;21161;-86
2022/08/15 10:43:38;;;;;;;10.95;8.93;;;;;;;30.87;47.01;97142.19;1724348;82;21184;-88
2022/08/15 10:46:23;;;;;;;;;;;;;;;30.66;48.65;97141.88;1706466;83;21010;-88
2022/08/15 10:49:12;;;;;;;10.28;8.85;;;;;;;30.32;50.27;97143.77;1702689;82;20201;-86
2022/08/15 10:52:18;;;;;;;12.18;8.48;;;;;;;30.05;51.72;97152.28;1728118;82;21432;-85
2022/08/15 10:55:14;;;;;;;10.88;8.90;;;;;;;29.83;51.88;97153.94;1728658;82;22061;-88
2022/08/15 10:57:47;;;;;;;10.38;9.28;;;;;;;29.79;51.71;97151.80;1633489;85;21013;-88
2022/08/15 11:00:37;;;;;;;11.45;9.73;;;;;;;29.43;53.27;97155.22;1665396;85;21107;-85
2022/08/15 11:03:08;;;;;;;9.80;8.80;;;;;;;29.30;52.62;97148.66;1700123;82;21015;-85
2022/08/15 11:05:34;;;;;;;14.90;9.75;;;;;;;29.23;52.81;97152.98;1723092;82;20995;-88
2022/08/15 11:08:00;;;;;;;10.88;8.43;;;;;;;29.22;53.16;97151.38;1726439;82;21215;-85
2022/08/15 11:10:29;;;;;;;9.85;8.85;;;;;;;29.07;54.28;97155.03;1693612;84;20954;-88
2022/08/15 11:13:05;;;;;;;11.12;9.05;;;;;;;29.06;54.20;97154.06;1693350;84;21439;-87
2022/08/15 11:15:46;;;;;;;10.72;8.48;;;;;;;28.84;55.65;97157.75;1701831;82;21053;-87
2022/08/15 11:18:13;;;;;;;11.22;8.98;;;;;;;28.96;55.47;97155.00;1729576;82;21023;-87
2022/08/15 11:20:45;;;;;;;10.53;8.60;;;;;;;28.83;55.72;97151.98;1708106;83;21447;-85
2022/08/15 11:23:13;;;;;;;11.28;8.33;;;;;;;28.50;56.25;97149.48;1728635;82;21632;-87
2022/08/15 11:25:41;;;;;;;12.25;9.13;;;;;;;28.60;55.78;97154.11;1726807;83;21456;-87
2022/08/15 11:28:20;;;;;;;12.43;8.65;;;;;;;28.79;56.05;97151.23;1687245;84;21015;-87
2022/08/15 11:30:46;;;;;;;9.70;7.97;;;;;;;28.62;56.69;97142.72;1704168;82;21053;-85
2022/08/15 11:33:35;;;;;;;13.60;9.03;;;;;;;28.64;56.80;97147.29;1677007;83;21132;-87
2022/08/15 11:36:18;;;;;;;11.12;8.33;;;;;;;28.68;57.32;97147.83;1701145;82;21005;-87
2022/08/15 11:38:51;;;;;;;11.30;8.70;;;;;;;28.69;56.03;97148.02;1725753;82;20989;-85
2022/08/15 11:41:29;;;;;;;9.78;8.75;;;;;;;28.90;56.10;97145.73;1723094;83;21018;-88
2022/08/15 11:43:58;;;;;;;12.60;9.60;;;;;;;29.16;56.27;97144.13;1724236;83;22020;-88
2022/08/15 11:46:24;;;;;;;9.85;8.60;;;;;;;29.41;55.31;97140.13;1724271;81;21087;-86
2022/08/15 11:48:57;;;;;;;9.43;8.50;;;;;;;29.35;54.94;97139.03;1703272;83;21002;-85
2022/08/15 11:51:27;;;;;;;12.07;9.38;;;;;;;29.38;54.16;97141.74;1722832;82;21010;-86
2022/08/15 11:54:15;;;;;;;14.38;9.40;;;;;;;29.40;53.16;97146.92;1726878;82;21111;-88
2022/08/15 11:56:56;;;;;;;9.83;8.83;;;;;;;29.45;53.80;97153.39;1693390;84;21531;-85